createdAt,value
2023-05-03T00:01:10.196Z,9.80
2023-05-03T00:05:12.011Z,9.70
2023-05-03T00:09:13.695Z,9.60
2023-05-03T00:13:14.954Z,9.70
2023-05-03T00:17:16.298Z,9.50
2023-05-03T00:21:17.609Z,9.30
2023-05-03T00:25:18.748Z,9.20
2023-05-03T00:29:21.596Z,9.00
2023-05-03T00:33:22.777Z,9.20
2023-05-03T00:37:24.438Z,9.20
2023-05-03T00:41:26.083Z,9.20
2023-05-03T00:45:30.342Z,9.50
2023-05-03T00:49:31.515Z,9.70
2023-05-03T00:53:32.975Z,9.80
2023-05-03T00:57:34.110Z,9.70
2023-05-03T01:01:35.413Z,9.80
2023-05-03T01:05:40.337Z,9.80
2023-05-03T01:09:51.372Z,9.70
2023-05-03T01:13:58.648Z,9.40
2023-05-03T01:18:12.787Z,9.30
2023-05-03T01:22:33.338Z,9.40
2023-05-03T01:26:34.508Z,9.40
2023-05-03T01:30:36.574Z,9.60
2023-05-03T01:34:41.573Z,9.60
2023-05-03T01:38:43.119Z,9.60
2023-05-03T01:42:44.391Z,9.50
2023-05-03T01:46:46.345Z,9.40
2023-05-03T01:50:47.488Z,9.50
2023-05-03T01:54:48.646Z,9.50
2023-05-03T01:58:49.789Z,9.50
2023-05-03T02:02:51.076Z,9.40
2023-05-03T02:06:52.216Z,9.40
2023-05-03T02:10:53.356Z,9.20
2023-05-03T02:14:54.517Z,9.20
2023-05-03T02:18:57.559Z,8.90
2023-05-03T02:22:58.828Z,8.90
2023-05-03T02:26:59.995Z,8.80
2023-05-03T02:31:01.328Z,8.80
2023-05-03T02:35:02.520Z,8.80
2023-05-03T02:39:03.574Z,8.70
2023-05-03T02:43:04.732Z,8.80
2023-05-03T02:47:05.878Z,8.50
2023-05-03T02:51:07.039Z,8.50
2023-05-03T02:55:08.849Z,8.50
2023-05-03T02:59:11.003Z,8.60
2023-05-03T03:03:12.348Z,8.40
2023-05-03T03:07:13.498Z,8.50
2023-05-03T03:11:14.858Z,8.50
2023-05-03T03:15:16.286Z,8.30
2023-05-03T03:19:17.413Z,8.30
2023-05-03T03:23:18.580Z,8.10
2023-05-03T03:27:20.824Z,8.10
2023-05-03T03:31:22.487Z,7.90
2023-05-03T03:35:24.107Z,8.00
2023-05-03T03:39:25.276Z,7.80
2023-05-03T03:43:26.571Z,7.90
2023-05-03T03:47:27.821Z,7.90
2023-05-03T03:51:28.973Z,7.90
2023-05-03T03:55:30.517Z,7.90
2023-05-03T03:59:31.602Z,8.00
2023-05-03T04:03:32.790Z,7.80
2023-05-03T04:07:33.994Z,7.80
2023-05-03T04:11:35.405Z,7.80
2023-05-03T04:15:36.551Z,7.80
2023-05-03T04:19:37.920Z,7.80
2023-05-03T04:23:39.669Z,7.80
2023-05-03T04:27:41.036Z,7.70
2023-05-03T04:31:42.950Z,7.60
2023-05-03T04:35:44.039Z,7.50
2023-05-03T04:39:45.597Z,7.60
2023-05-03T04:43:46.752Z,7.70
2023-05-03T04:47:48.039Z,8.10
2023-05-03T04:51:49.179Z,8.10
2023-05-03T04:55:50.616Z,8.30
2023-05-03T04:59:53.422Z,8.70
2023-05-03T05:03:54.638Z,8.90
2023-05-03T05:07:55.756Z,9.30
2023-05-03T05:11:57.456Z,9.50
2023-05-03T05:15:58.592Z,9.70
2023-05-03T05:19:59.916Z,9.70
2023-05-03T05:24:01.213Z,9.70
2023-05-03T05:28:02.485Z,9.90
2023-05-03T05:32:04.696Z,10.10
2023-05-03T05:36:06.179Z,10.10
2023-05-03T05:40:08.386Z,10.20
2023-05-03T05:44:09.547Z,10.20
2023-05-03T05:48:10.757Z,10.10
2023-05-03T05:52:11.880Z,10.20
2023-05-03T05:56:13.719Z,10.30
2023-05-03T06:00:16.479Z,10.30
2023-05-03T06:04:17.662Z,10.40
2023-05-03T06:08:18.800Z,10.40
2023-05-03T06:12:19.966Z,10.50
2023-05-03T06:16:21.535Z,10.60
2023-05-03T06:20:23.695Z,10.40
2023-05-03T06:24:26.754Z,10.40
2023-05-03T06:28:27.911Z,10.30
2023-05-03T06:32:29.057Z,10.10
2023-05-03T06:36:30.319Z,10.10
2023-05-03T06:40:31.494Z,10.50
2023-05-03T06:44:33.973Z,10.80
2023-05-03T06:48:35.124Z,10.90
2023-05-03T06:52:36.221Z,11.40
2023-05-03T06:56:37.307Z,11.60
2023-05-03T07:00:38.646Z,11.50
2023-05-03T07:04:39.940Z,11.70
2023-05-03T07:08:41.086Z,12.50
2023-05-03T07:12:42.243Z,12.70
2023-05-03T07:16:43.463Z,12.90
2023-05-03T07:20:45.661Z,14.00
2023-05-03T07:24:46.861Z,14.60
2023-05-03T07:28:47.980Z,15.00
2023-05-03T07:32:50.076Z,15.30
2023-05-03T07:36:54.065Z,15.70
2023-05-03T07:40:55.223Z,15.80
2023-05-03T07:44:56.399Z,16.00
2023-05-03T07:48:58.120Z,16.30
2023-05-03T07:52:59.263Z,16.00
2023-05-03T07:57:00.539Z,16.00
2023-05-03T08:01:01.771Z,15.50
2023-05-03T08:05:04.542Z,15.20
2023-05-03T08:09:05.795Z,15.30
2023-05-03T08:13:07.456Z,15.10
2023-05-03T08:17:08.938Z,15.40
2023-05-03T08:21:11.681Z,15.20
2023-05-03T08:25:12.960Z,15.80
2023-05-03T08:29:14.496Z,15.90
2023-05-03T08:33:15.689Z,15.90
2023-05-03T08:37:16.985Z,15.80
2023-05-03T08:41:25.390Z,16.10
2023-05-03T08:45:26.524Z,16.70
2023-05-03T08:49:28.770Z,17.10
2023-05-03T08:53:30.240Z,17.30
2023-05-03T08:57:33.610Z,17.40
2023-05-03T09:01:36.169Z,17.30
2023-05-03T09:05:39.275Z,17.70
2023-05-03T09:09:40.470Z,17.90
2023-05-03T09:13:41.554Z,18.40
2023-05-03T09:17:42.811Z,19.00
2023-05-03T09:21:46.321Z,19.10
2023-05-03T09:25:48.978Z,18.90
2023-05-03T09:29:50.753Z,18.70
2023-05-03T09:33:52.823Z,19.50
2023-05-03T09:37:53.979Z,19.50
2023-05-03T09:41:55.898Z,19.70
2023-05-03T09:46:12.533Z,19.90
2023-05-03T09:50:13.877Z,20.00
2023-05-03T09:54:15.971Z,20.50
2023-05-03T09:58:18.153Z,20.70
2023-05-03T10:02:21.074Z,20.60
2023-05-03T10:06:31.207Z,20.50
2023-05-03T10:10:35.133Z,21.00
2023-05-03T10:14:36.299Z,20.30
2023-05-03T10:18:41.280Z,20.40
2023-05-03T10:23:05.934Z,20.70
2023-05-03T10:27:07.806Z,20.80
2023-05-03T10:31:46.519Z,21.30
2023-05-03T10:35:52.560Z,21.20
2023-05-03T10:39:54.672Z,21.90
2023-05-03T10:43:57.040Z,22.50
2023-05-03T10:48:15.915Z,22.60
2023-05-03T10:52:39.184Z,23.10
2023-05-03T10:56:48.988Z,23.10
2023-05-03T11:00:54.242Z,23.00
2023-05-03T11:04:59.296Z,22.00
2023-05-03T11:09:01.252Z,22.00
2023-05-03T11:13:04.337Z,21.70
2023-05-03T11:17:05.751Z,21.80
2023-05-03T11:21:06.923Z,22.30
2023-05-03T11:25:09.923Z,23.00
2023-05-03T11:29:12.997Z,23.20
2023-05-03T11:33:14.268Z,22.70
2023-05-03T11:37:15.497Z,23.00
2023-05-03T11:41:17.379Z,21.70
2023-05-03T11:45:24.300Z,21.50
2023-05-03T11:49:26.931Z,21.90
2023-05-03T11:53:28.296Z,22.30
2023-05-03T11:57:31.275Z,22.20
2023-05-03T12:01:32.673Z,22.00
2023-05-03T12:05:34.191Z,22.60
2023-05-03T12:09:35.914Z,22.60
2023-05-03T12:13:39.729Z,23.10
2023-05-03T12:17:44.139Z,22.60
2023-05-03T12:22:01.184Z,22.10
2023-05-03T12:25:52.862Z,22.50
2023-05-03T12:29:55.649Z,22.70
2023-05-03T12:34:19.742Z,23.10
2023-05-03T12:38:03.036Z,23.30
2023-05-03T12:42:07.779Z,22.40
2023-05-03T12:46:32.371Z,22.50
2023-05-03T12:50:12.591Z,22.70
2023-05-03T12:54:18.370Z,23.00
2023-05-03T13:06:24.628Z,22.50
2023-05-03T13:10:26.455Z,22.90
2023-05-03T13:14:27.854Z,22.50
2023-05-03T13:18:29.008Z,22.60
2023-05-03T13:22:30.849Z,22.90
2023-05-03T13:26:32.571Z,22.60
2023-05-03T13:30:33.837Z,22.40
2023-05-03T13:34:35.521Z,22.20
2023-05-03T13:38:36.851Z,22.40
2023-05-03T13:42:38.022Z,22.40
2023-05-03T13:46:40.824Z,22.90
2023-05-03T13:50:42.448Z,23.30
2023-05-03T13:54:43.643Z,22.80
2023-05-03T13:58:44.775Z,22.90
2023-05-03T14:02:51.977Z,22.70
2023-05-03T14:06:53.366Z,23.30
2023-05-03T14:10:54.573Z,22.90
2023-05-03T14:14:55.745Z,23.00
2023-05-03T14:18:57.406Z,22.30
2023-05-03T14:22:58.641Z,22.30
2023-05-03T14:27:01.113Z,22.50
2023-05-03T14:31:06.904Z,22.60
2023-05-03T14:35:08.709Z,22.00
2023-05-03T14:39:12.558Z,21.70
2023-05-03T14:43:14.865Z,21.50
2023-05-03T14:47:16.210Z,21.70
2023-05-03T14:51:18.257Z,22.20
2023-05-03T14:55:19.454Z,22.20
2023-05-03T14:59:20.720Z,22.60
2023-05-03T15:03:21.913Z,22.60
2023-05-03T15:07:23.333Z,22.50
2023-05-03T15:11:26.988Z,22.60
2023-05-03T15:15:28.241Z,22.50
2023-05-03T15:19:29.563Z,22.90
2023-05-03T15:23:30.794Z,22.80
2023-05-03T15:27:32.051Z,23.10
2023-05-03T15:31:34.787Z,22.40
2023-05-03T15:35:38.638Z,22.30
2023-05-03T15:39:39.788Z,22.00
2023-05-03T15:43:40.967Z,22.30
2023-05-03T15:47:42.475Z,22.20
2023-05-03T15:51:43.581Z,21.90
2023-05-03T15:55:45.150Z,22.20
2023-05-03T15:59:49.653Z,22.60
2023-05-03T16:03:50.782Z,22.20
2023-05-03T16:07:56.165Z,22.30
2023-05-03T16:11:59.068Z,22.00
2023-05-03T16:16:02.323Z,21.90
2023-05-03T16:20:09.421Z,21.60
2023-05-03T16:24:11.888Z,21.30
2023-05-03T16:28:14.676Z,21.30
2023-05-03T16:32:16.015Z,21.50
2023-05-03T16:36:19.027Z,21.30
2023-05-03T16:40:20.566Z,21.30
2023-05-03T16:44:23.496Z,21.20
2023-05-03T16:48:25.612Z,21.10
2023-05-03T16:52:27.899Z,20.80
2023-05-03T16:56:30.340Z,20.70
2023-05-03T17:00:32.852Z,20.70
2023-05-03T17:04:34.716Z,20.80
2023-05-03T17:08:36.572Z,21.00
2023-05-03T17:12:38.180Z,21.00
2023-05-03T17:16:40.412Z,20.90
2023-05-03T17:20:42.197Z,20.80
2023-05-03T17:24:43.590Z,20.70
2023-05-03T17:28:44.711Z,20.60
2023-05-03T17:32:46.105Z,20.40
2023-05-03T17:36:47.249Z,20.20
2023-05-03T17:40:48.506Z,20.10
2023-05-03T17:44:54.512Z,20.10
2023-05-03T17:48:57.118Z,20.20
2023-05-03T17:52:58.733Z,20.20
2023-05-03T17:57:01.947Z,20.10
2023-05-03T18:01:05.153Z,20.10
2023-05-03T18:05:07.248Z,20.00
2023-05-03T18:09:08.408Z,19.90
2023-05-03T18:13:11.984Z,20.00
2023-05-03T18:17:13.126Z,19.90
2023-05-03T18:21:14.280Z,19.70
2023-05-03T18:25:16.252Z,19.70
2023-05-03T18:29:17.443Z,19.90
2023-05-03T18:33:19.540Z,19.80
2023-05-03T18:37:23.877Z,19.60
2023-05-03T18:41:24.401Z,19.60
2023-05-03T18:45:26.210Z,19.40
2023-05-03T18:49:27.469Z,19.30
2023-05-03T18:53:30.426Z,19.20
2023-05-03T18:57:31.743Z,19.00
2023-05-03T19:01:33.213Z,19.00
2023-05-03T19:05:34.470Z,18.80
2023-05-03T19:09:37.788Z,18.60
2023-05-03T19:13:41.738Z,18.30
2023-05-03T19:17:43.977Z,18.20
2023-05-03T19:21:45.169Z,18.00
2023-05-03T19:25:46.477Z,17.90
2023-05-03T19:29:47.756Z,17.70
2023-05-03T19:33:49.025Z,17.60
2023-05-03T19:37:50.370Z,17.60
2023-05-03T19:41:52.483Z,17.40
2023-05-03T19:45:53.806Z,17.30
2023-05-03T19:49:55.460Z,17.30
2023-05-03T19:53:57.237Z,17.20
2023-05-03T19:57:58.679Z,17.10
2023-05-03T20:02:00.054Z,16.90
2023-05-03T20:06:01.703Z,16.80
2023-05-03T20:10:04.797Z,16.60
2023-05-03T20:14:07.269Z,16.50
2023-05-03T20:18:08.668Z,16.30
2023-05-03T20:22:10.597Z,16.30
2023-05-03T20:26:11.818Z,16.30
2023-05-03T20:30:13.314Z,16.30
2023-05-03T20:34:14.767Z,16.20
2023-05-03T20:38:16.158Z,16.10
2023-05-03T20:42:17.370Z,16.10
2023-05-03T20:46:18.836Z,15.90
2023-05-03T20:50:20.356Z,15.90
2023-05-03T20:54:22.570Z,15.80
2023-05-03T20:58:23.772Z,15.70
2023-05-03T21:02:25.000Z,15.70
2023-05-03T21:06:26.504Z,15.60
2023-05-03T21:10:27.658Z,15.70
2023-05-03T21:14:28.877Z,15.50
2023-05-03T21:18:30.038Z,15.50
2023-05-03T21:22:31.440Z,15.50
2023-05-03T21:26:32.611Z,15.40
2023-05-03T21:30:33.988Z,15.30
2023-05-03T21:34:35.181Z,15.20
2023-05-03T21:38:36.300Z,15.30
2023-05-03T21:42:38.068Z,15.00
2023-05-03T21:46:42.341Z,14.90
2023-05-03T21:50:45.176Z,14.80
2023-05-03T21:54:46.430Z,14.70
2023-05-03T21:58:48.200Z,14.70
2023-05-03T22:02:49.375Z,14.70
2023-05-03T22:06:50.498Z,14.50
2023-05-03T22:10:51.677Z,14.40
2023-05-03T22:14:53.631Z,14.40
2023-05-03T22:18:55.032Z,14.30
2023-05-03T22:22:57.104Z,14.10
2023-05-03T22:26:58.548Z,14.10
2023-05-03T22:30:59.712Z,14.10
2023-05-03T22:35:00.877Z,14.10
2023-05-03T22:39:04.066Z,13.90
2023-05-03T22:43:05.322Z,13.90
2023-05-03T22:47:07.477Z,13.80
2023-05-03T22:51:08.767Z,13.80
2023-05-03T22:55:10.099Z,13.70
2023-05-03T22:59:11.551Z,13.50
2023-05-03T23:03:12.786Z,13.40
2023-05-03T23:07:14.678Z,13.30
2023-05-03T23:11:15.847Z,13.30
2023-05-03T23:15:17.018Z,13.30
2023-05-03T23:19:20.647Z,13.30
2023-05-03T23:23:22.064Z,13.00
2023-05-03T23:27:23.196Z,12.70
2023-05-03T23:31:24.945Z,12.60
2023-05-03T23:35:26.515Z,12.70
2023-05-03T23:39:27.678Z,12.60
2023-05-03T23:43:28.817Z,12.50
2023-05-03T23:47:30.194Z,12.60
2023-05-03T23:51:31.328Z,12.50
2023-05-03T23:55:32.418Z,12.40
2023-05-03T23:59:33.541Z,12.20
